Adolphus, KY (42120)

11:22 PM CDT on July 23, 2016 (GMT -0500)
CnTAstro | | Change Station
Active Advisory: Heat Advisory

Elev 814 ft 36.61 °N, 86.45 °W | Updated 7 minutes ago

Clear
Clear
76.4 °F
Feels Like 77 °F
N
1.0
Wind Variable Wind from South
Gusts 4.0 mph

Today
High -- | Low -- °F
--% Chance of Precip.
Yesterday
High -- | Low -- °F
Precip. -- in
Pressure 29.98 in
Visibility 10.0 miles
Clouds Clear
Heat Index 77 °F
Dew Point 74 °F
Humidity 93%
Rainfall 1.09 in
Snow Depth Not available.
5:44 AM 7:58 PM
Waning Gibbous, 80% visible
METAR KBWG 240353Z AUTO 09004KT 10SM CLR 27/24 A2999 RMK AO2 SLP150 T02670239
Pressure 29.98 in
Visibility 10.0 miles
Clouds Clear
Heat Index 77 °F
Dew Point 74 °F
Humidity 93%
Rainfall 1.09 in
Snow Depth Not available.
5:44 AM 7:58 PM
Waning Gibbous, 80% visible
METAR KBWG 240353Z AUTO 09004KT 10SM CLR 27/24 A2999 RMK AO2 SLP150 T02670239

10-Day Weather Forecast

Almanac

Astronomy

Jul. 23, 2016 Rise Set
Actual Time
Civil Twilight
Nautical Twilight
Astronomical Twilight
Moon
Length of Visible Light
Length of Day
Tomorrow will be .
, % of the Moon is Illuminated

Today's Extremes

State Highs State Lows

Community

WunderPhotos

Upload Photos

1,927,027 photos uploaded!

WunderBlog® & News

Nearby

Air Quality

  Air Quality AQ Index Pollutant
Not available.

Snow Depth

Station Depth Elevation

Earthquake Activity

City Distance Mag. Time & Date
Minimum magnitude displayed is 2.5.

Coastal Water Temperatures

Place Temperature

Stations

Nearby Weather Stations

Station Location Temp. Windchill Dew Point Humidity Wind Precip. Elev Updated Type
                   

Watches & Warnings

Heat Advisory
Issued: 7:20 PM CDT Jul. 23, 2016 – National Weather Service

... Heat advisory remains in effect until 8 PM EDT /7 PM CDT/
Sunday...

* temperature... high temperatures Sunday afternoon will warm into
the lower to middle 90s. These temperatures combined with
dewpoints in the lower to middle 70s will produce heat index
readings near 105 degrees.

Precautionary/preparedness actions...

Take extra precautions... if you work or spend time outside. When
possible... reschedule strenuous activities to early morning or
evening. Know the signs and symptoms of heat exhaustion and heat
stroke. Wear light weight and loose fitting clothing when
possible and drink plenty of water.



13